Tropical Cyclones
[Index]
Main Index Home Page Stock Weather Photos Extreme Storms Discussion Storm News and Storm Chasing Reports Tropical Cyclones / Hurricanes / Typhoons Weather Data and Links Wild Fires / Bushfires Weather Observation Techniques Weather Picture Catalogue Tornado Pictures and Reports Stock Video Footage and DVDs for sale
Season 1981-1982 Tropical Cyclone AMELIA Track Map
Season 1981-1982 Summaries: [BoM-AU] [JTWC-AU] [JTWC-SIO] [JTWC-SPAC] [JTWC-SH]
<<- Previous TC | BoM 1981-1982 Season | Next TC ->>

click for intensity scale information  Lat/long Grid: Show Hide

 Date Labels: Show Hide

Bureau of Meteorology Tropical Cyclone Data

Name: AMELIA
Number: 622 / 198182_03

30 Nov 1981 23:00 UTC to 06 Dec 1981 05:00 UTC

    date/time    lat    long    hPa   cat  kts
1981-11-30 23   16.0   139.0   1004                     
1981-12-01 02   15.4   138.5   1003                     
1981-12-01 05   15.0   138.2   1002                     
1981-12-01 08   14.6   137.7   1000                     
1981-12-01 11   14.5   137.1   1002                     
1981-12-01 17   14.3   136.0   1002                     
1981-12-01 20   14.0   135.9   1002                     
1981-12-01 23   13.7   135.8   1002                     
1981-12-02 02   13.2   135.5   1002                     
1981-12-02 05   12.9   135.3   1000                     
1981-12-02 08   12.5   135.3   1000                     
1981-12-02 11   12.0   134.8   1000                     
1981-12-02 17   11.6   133.6   1000                     
1981-12-02 20   11.5   133.4   1000                     
1981-12-02 23   11.2   132.8    999                     
1981-12-03 02   11.3   132.4   1000                     
1981-12-03 05   11.5   132.2   1000                     
1981-12-03 08   11.8   132.0   1000                     
1981-12-03 11   12.0   131.0   1000                     
1981-12-03 17   11.9   130.2   1000                     
1981-12-03 20   11.6   129.5    999                     
1981-12-03 23   11.3   128.7    998                     
1981-12-04 02   11.3   128.4    998                     
1981-12-04 05   11.3   128.2    996                     
1981-12-04 08   11.4   127.9    996                     
1981-12-04 11   11.5   127.5    996                     
1981-12-04 17   11.9   126.9    996                     
1981-12-04 20   12.2   126.6    996                     
1981-12-04 23   12.3   126.3    997                     
1981-12-05 02   12.5   125.9    998                     
1981-12-05 05   12.6   125.6    998                     
1981-12-05 08   12.9   125.0    998                     
1981-12-05 11   13.2   124.5   1000                     
1981-12-05 17   13.7   123.5   1002                     
1981-12-05 23   13.9   122.9   1003                     
1981-12-06 02   14.1   122.1   1003                     
1981-12-06 05   14.2   121.5   1003                     
Winds are 10-min average.

Tropical cyclone tracks developed by Michael Bath using data from the Bureau of Meteorology and Google Maps.


[Australian Severe Weather index] [Copyright Notice] [Email Contacts] [Search This Site] [Privacy Policy]
Document: tropical_cyclone_amelia.htm Updated: 30 May 2013